FDX582 LPPD-GCXO
Flight info
| Callsign | FDX582 |
|---|---|
| Flight time | N/A |
| Altitude | 37000 |
| Route | VSM H104 ETROX/N0409F370 DCT GALOZ DCT ORTIS |
| Aircraft | B738/M-SDE2E3FGHIRWXY/LB1 |
Departure
| Time | 2026-05-09 03:19 |
|---|---|
| Airport | João Paulo II Airport (LPPD) |
Arrival
| Time | N/A |
|---|---|
| Airport | Tenerife Norte-Ciudad de La Laguna Airport (GCXO) |
| Time | Latitude | Longitude | Altitude | Speed | Heading |
|---|---|---|---|---|---|
| 2026-05-09 02:46 | 37.74891 | -25.71171 | 273 ft | 0 kts | 22° |
| 2026-05-09 03:09 | 37.74880 | -25.71177 | 270 ft | 4 kts | 26° |
| 2026-05-09 03:09 | 37.74857 | -25.71194 | 270 ft | 4 kts | 43° |
| 2026-05-09 03:10 | 37.74842 | -25.71220 | 270 ft | 4 kts | 82° |
| 2026-05-09 03:10 | 37.74842 | -25.71237 | 271 ft | 1 kts | 112° |
| 2026-05-09 03:12 | 37.74842 | -25.71236 | 271 ft | 0 kts | 112° |
| 2026-05-09 03:12 | 37.74838 | -25.71221 | 274 ft | 4 kts | 112° |
| 2026-05-09 03:12 | 37.74820 | -25.71166 | 271 ft | 9 kts | 112° |
| 2026-05-09 03:12 | 37.74791 | -25.71076 | 273 ft | 12 kts | 111° |
| 2026-05-09 03:13 | 37.74717 | -25.70840 | 271 ft | 16 kts | 112° |
| 2026-05-09 03:13 | 37.74671 | -25.70698 | 271 ft | 18 kts | 112° |
| 2026-05-09 03:13 | 37.74622 | -25.70542 | 271 ft | 20 kts | 112° |
| 2026-05-09 03:14 | 37.74536 | -25.70406 | 263 ft | 15 kts | 143° |
| 2026-05-09 03:14 | 37.74508 | -25.70378 | 260 ft | 2 kts | 141° |
| 2026-05-09 03:14 | 37.74507 | -25.70377 | 260 ft | 0 kts | 141° |
| 2026-05-09 03:16 | 37.74490 | -25.70359 | 258 ft | 6 kts | 141° |
| 2026-05-09 03:16 | 37.74434 | -25.70305 | 253 ft | 14 kts | 143° |
| 2026-05-09 03:16 | 37.74339 | -25.70190 | 243 ft | 23 kts | 124° |
| 2026-05-09 03:17 | 37.74267 | -25.69982 | 237 ft | 29 kts | 111° |
| 2026-05-09 03:17 | 37.74187 | -25.69727 | 232 ft | 33 kts | 112° |
| 2026-05-09 03:17 | 37.74095 | -25.69438 | 218 ft | 38 kts | 111° |
| 2026-05-09 03:17 | 37.73991 | -25.69107 | 204 ft | 43 kts | 111° |
| 2026-05-09 03:18 | 37.73880 | -25.68756 | 188 ft | 40 kts | 111° |
| 2026-05-09 03:18 | 37.73796 | -25.68572 | 183 ft | 20 kts | 146° |
| 2026-05-09 03:18 | 37.73738 | -25.68495 | 183 ft | 12 kts | 89° |
| 2026-05-09 03:18 | 37.73794 | -25.68489 | 183 ft | 10 kts | 302° |
| 2026-05-09 03:19 | 37.73822 | -25.68576 | 183 ft | 29 kts | 292° |
| 2026-05-09 03:19 | 37.73997 | -25.69125 | 208 ft | 102 kts | 291° |
| 2026-05-09 03:19 | 37.74332 | -25.70185 | 407 ft | 144 kts | 294° |
| 2026-05-09 03:19 | 37.74675 | -25.71392 | 1098 ft | 155 kts | 292° |
| 2026-05-09 03:20 | 37.74641 | -25.72816 | 1923 ft | 170 kts | 256° |
| 2026-05-09 03:20 | 37.74202 | -25.74213 | 2700 ft | 175 kts | 272° |
| 2026-05-09 03:20 | 37.74419 | -25.75760 | 3096 ft | 187 kts | 295° |
| 2026-05-09 03:20 | 37.74746 | -25.77460 | 3482 ft | 210 kts | 288° |
| 2026-05-09 03:21 | 37.74999 | -25.79380 | 3882 ft | 231 kts | 284° |
| 2026-05-09 03:21 | 37.75215 | -25.81518 | 4204 ft | 259 kts | 283° |
| 2026-05-09 03:21 | 37.75422 | -25.83790 | 5193 ft | 257 kts | 282° |
| 2026-05-09 03:21 | 37.75557 | -25.86009 | 6239 ft | 260 kts | 274° |
| 2026-05-09 03:22 | 37.75118 | -25.88287 | 7037 ft | 278 kts | 250° |
| 2026-05-09 03:22 | 37.74013 | -25.90325 | 7967 ft | 287 kts | 232° |
| 2026-05-09 03:22 | 37.72421 | -25.91902 | 8900 ft | 297 kts | 214° |
| 2026-05-09 03:22 | 37.70434 | -25.92788 | 9756 ft | 311 kts | 193° |
| 2026-05-09 03:23 | 37.68222 | -25.92737 | 10434 ft | 328 kts | 171° |
| 2026-05-09 03:23 | 37.66041 | -25.91570 | 10640 ft | 357 kts | 142° |
| 2026-05-09 03:23 | 37.64387 | -25.89149 | 10845 ft | 375 kts | 115° |
| 2026-05-09 03:23 | 37.63178 | -25.86149 | 11202 ft | 391 kts | 113° |
| 2026-05-09 03:24 | 37.61954 | -25.83031 | 11788 ft | 400 kts | 112° |
| 2026-05-09 03:24 | 37.60725 | -25.79857 | 12476 ft | 406 kts | 112° |
| 2026-05-09 03:24 | 37.59477 | -25.76625 | 13139 ft | 412 kts | 112° |
| 2026-05-09 03:24 | 37.58224 | -25.73395 | 13793 ft | 419 kts | 112° |
| 2026-05-09 03:25 | 37.56929 | -25.70068 | 14398 ft | 425 kts | 112° |
| 2026-05-09 03:25 | 37.55426 | -25.66832 | 15023 ft | 431 kts | 128° |
| 2026-05-09 03:25 | 37.53214 | -25.64284 | 15757 ft | 432 kts | 146° |
| 2026-05-09 03:25 | 37.50692 | -25.62157 | 16379 ft | 438 kts | 148° |
| 2026-05-09 03:26 | 37.48125 | -25.60038 | 16935 ft | 444 kts | 148° |
| 2026-05-09 03:26 | 37.45526 | -25.57895 | 17562 ft | 448 kts | 148° |
| 2026-05-09 03:26 | 37.42945 | -25.55753 | 18189 ft | 452 kts | 148° |
| 2026-05-09 03:26 | 37.40314 | -25.53552 | 18738 ft | 456 kts | 148° |
| 2026-05-09 03:27 | 37.37664 | -25.51324 | 19261 ft | 459 kts | 148° |
| 2026-05-09 03:27 | 37.35007 | -25.49081 | 19880 ft | 460 kts | 148° |
| 2026-05-09 03:27 | 37.32337 | -25.46827 | 20415 ft | 463 kts | 149° |
| 2026-05-09 03:27 | 37.29646 | -25.44557 | 20910 ft | 467 kts | 149° |
| 2026-05-09 03:28 | 37.26932 | -25.42270 | 21398 ft | 471 kts | 149° |
| 2026-05-09 03:28 | 37.24231 | -25.39996 | 21902 ft | 474 kts | 149° |
| 2026-05-09 03:28 | 37.21482 | -25.37684 | 22382 ft | 478 kts | 149° |
| 2026-05-09 03:28 | 37.18707 | -25.35353 | 22831 ft | 481 kts | 150° |
| 2026-05-09 03:29 | 37.15909 | -25.33006 | 23220 ft | 487 kts | 150° |
| 2026-05-09 03:29 | 37.13082 | -25.30635 | 23645 ft | 490 kts | 150° |
| 2026-05-09 03:29 | 37.10233 | -25.28247 | 24045 ft | 493 kts | 150° |
| 2026-05-09 03:29 | 37.07377 | -25.25855 | 24451 ft | 495 kts | 150° |
| 2026-05-09 03:30 | 37.04505 | -25.23452 | 24840 ft | 497 kts | 150° |
| 2026-05-09 03:30 | 37.01625 | -25.21045 | 25218 ft | 500 kts | 150° |
| 2026-05-09 03:30 | 36.98715 | -25.18616 | 25546 ft | 502 kts | 151° |
| 2026-05-09 03:30 | 36.95926 | -25.15948 | 25891 ft | 512 kts | 137° |
| 2026-05-09 03:31 | 36.93805 | -25.12344 | 26262 ft | 518 kts | 121° |
| 2026-05-09 03:31 | 36.92040 | -25.08485 | 26668 ft | 519 kts | 120° |
| 2026-05-09 03:31 | 36.90268 | -25.04540 | 26987 ft | 522 kts | 120° |
| 2026-05-09 03:31 | 36.88466 | -25.00582 | 27314 ft | 525 kts | 121° |
| 2026-05-09 03:32 | 36.86617 | -24.96616 | 27585 ft | 529 kts | 122° |
| 2026-05-09 03:32 | 36.84724 | -24.92645 | 27885 ft | 531 kts | 122° |
| 2026-05-09 03:32 | 36.82812 | -24.88693 | 28291 ft | 531 kts | 123° |
| 2026-05-09 03:32 | 36.80913 | -24.84799 | 28620 ft | 533 kts | 123° |
| 2026-05-09 03:33 | 36.78979 | -24.80845 | 28896 ft | 535 kts | 123° |
| 2026-05-09 03:33 | 36.77033 | -24.76871 | 29169 ft | 538 kts | 123° |
| 2026-05-09 03:33 | 36.75075 | -24.72871 | 29451 ft | 540 kts | 123° |
| 2026-05-09 03:33 | 36.73118 | -24.68870 | 29814 ft | 541 kts | 123° |
| 2026-05-09 03:34 | 36.71153 | -24.64855 | 30096 ft | 543 kts | 123° |
| 2026-05-09 03:34 | 36.69188 | -24.60843 | 30429 ft | 541 kts | 123° |
| 2026-05-09 03:34 | 36.67237 | -24.56860 | 30943 ft | 536 kts | 123° |
| 2026-05-09 03:34 | 36.65298 | -24.52908 | 31384 ft | 533 kts | 123° |
| 2026-05-09 03:35 | 36.63361 | -24.48965 | 31684 ft | 533 kts | 123° |
| 2026-05-09 03:35 | 36.61422 | -24.45028 | 31932 ft | 534 kts | 124° |
| 2026-05-09 03:35 | 36.59476 | -24.41079 | 32241 ft | 534 kts | 124° |
| 2026-05-09 03:35 | 36.57533 | -24.37139 | 32609 ft | 533 kts | 124° |
| 2026-05-09 03:36 | 36.55612 | -24.33250 | 32832 ft | 535 kts | 124° |
| 2026-05-09 03:36 | 36.53638 | -24.29257 | 33109 ft | 534 kts | 124° |
| 2026-05-09 03:36 | 36.51726 | -24.25392 | 33615 ft | 528 kts | 124° |
| 2026-05-09 03:36 | 36.49799 | -24.21503 | 34043 ft | 525 kts | 124° |
| 2026-05-09 03:37 | 36.47881 | -24.17637 | 34273 ft | 526 kts | 124° |
| 2026-05-09 03:37 | 36.45956 | -24.13763 | 34435 ft | 527 kts | 124° |
| 2026-05-09 03:37 | 36.44019 | -24.09869 | 34626 ft | 528 kts | 124° |
| 2026-05-09 03:37 | 36.42090 | -24.05994 | 34899 ft | 528 kts | 124° |
| 2026-05-09 03:38 | 36.40176 | -24.02151 | 35067 ft | 529 kts | 124° |
| 2026-05-09 03:38 | 36.38273 | -23.98219 | 35211 ft | 531 kts | 123° |
| 2026-05-09 03:38 | 36.36424 | -23.94258 | 35575 ft | 527 kts | 122° |
| 2026-05-09 03:38 | 36.34610 | -23.90309 | 35864 ft | 526 kts | 122° |
| 2026-05-09 03:39 | 36.32799 | -23.86353 | 36049 ft | 526 kts | 122° |
| 2026-05-09 03:39 | 36.31012 | -23.82463 | 36311 ft | 525 kts | 122° |
| 2026-05-09 03:39 | 36.29200 | -23.78538 | 36606 ft | 523 kts | 122° |
| 2026-05-09 03:39 | 36.27384 | -23.74627 | 36909 ft | 521 kts | 122° |
| 2026-05-09 03:40 | 36.25568 | -23.70734 | 37015 ft | 523 kts | 122° |
| 2026-05-09 03:40 | 36.23736 | -23.66819 | 37004 ft | 526 kts | 122° |
| 2026-05-09 03:40 | 36.20085 | -23.59035 | 36992 ft | 523 kts | 122° |
| 2026-05-09 03:41 | 36.16433 | -23.51260 | 36998 ft | 520 kts | 122° |
| 2026-05-09 03:41 | 36.12801 | -23.43545 | 36994 ft | 517 kts | 122° |
| 2026-05-09 03:42 | 36.09197 | -23.35906 | 36995 ft | 517 kts | 122° |
| 2026-05-09 03:42 | 36.05561 | -23.28220 | 36994 ft | 517 kts | 123° |
| 2026-05-09 03:43 | 36.01920 | -23.20539 | 36991 ft | 518 kts | 123° |
| 2026-05-09 03:43 | 35.98268 | -23.12851 | 36993 ft | 519 kts | 123° |
| 2026-05-09 03:44 | 35.94620 | -23.05189 | 36987 ft | 522 kts | 123° |
| 2026-05-09 03:44 | 35.90929 | -22.97456 | 36945 ft | 524 kts | 123° |
| 2026-05-09 03:45 | 35.87220 | -22.89698 | 36978 ft | 525 kts | 123° |
| 2026-05-09 03:45 | 35.83499 | -22.81936 | 36979 ft | 526 kts | 123° |
| 2026-05-09 03:46 | 35.79781 | -22.74199 | 36978 ft | 527 kts | 123° |
| 2026-05-09 03:46 | 35.76050 | -22.66453 | 36981 ft | 527 kts | 123° |
| 2026-05-09 03:47 | 35.72304 | -22.58691 | 36967 ft | 526 kts | 123° |
| 2026-05-09 03:47 | 35.68557 | -22.50945 | 36967 ft | 526 kts | 123° |
| 2026-05-09 03:48 | 35.65446 | -22.44525 | 36988 ft | 525 kts | 123° |
| 2026-05-09 03:48 | 35.61696 | -22.36808 | 36959 ft | 525 kts | 123° |
| 2026-05-09 03:49 | 35.57947 | -22.29107 | 36933 ft | 524 kts | 124° |
| 2026-05-09 03:49 | 35.54231 | -22.21490 | 36959 ft | 522 kts | 124° |
| 2026-05-09 03:50 | 35.50490 | -22.13839 | 36961 ft | 522 kts | 124° |
| 2026-05-09 03:50 | 35.46750 | -22.06208 | 36954 ft | 521 kts | 124° |
| 2026-05-09 03:51 | 35.43003 | -21.98580 | 36957 ft | 521 kts | 124° |
| 2026-05-09 03:51 | 35.39256 | -21.90969 | 36946 ft | 521 kts | 124° |
| 2026-05-09 03:52 | 35.35507 | -21.83370 | 36954 ft | 521 kts | 124° |
| 2026-05-09 03:52 | 35.31767 | -21.75807 | 36959 ft | 523 kts | 124° |
| 2026-05-09 03:53 | 35.27990 | -21.68185 | 36966 ft | 523 kts | 124° |
| 2026-05-09 03:53 | 35.24202 | -21.60560 | 36912 ft | 524 kts | 124° |
| 2026-05-09 03:54 | 35.20434 | -21.52992 | 36947 ft | 524 kts | 124° |
| 2026-05-09 03:54 | 35.16631 | -21.45368 | 36974 ft | 525 kts | 124° |
| 2026-05-09 03:55 | 35.12813 | -21.37730 | 36953 ft | 526 kts | 124° |
| 2026-05-09 03:55 | 35.08989 | -21.30097 | 36949 ft | 526 kts | 124° |
| 2026-05-09 03:56 | 35.05186 | -21.22522 | 36929 ft | 526 kts | 125° |
| 2026-05-09 03:56 | 35.01361 | -21.14920 | 36942 ft | 526 kts | 125° |
| 2026-05-09 03:57 | 34.97525 | -21.07313 | 36946 ft | 526 kts | 125° |
| 2026-05-09 03:57 | 34.93683 | -20.99712 | 36942 ft | 526 kts | 125° |
| 2026-05-09 03:58 | 34.89841 | -20.92125 | 36939 ft | 526 kts | 125° |
| 2026-05-09 03:58 | 34.86019 | -20.84595 | 36945 ft | 525 kts | 125° |
| 2026-05-09 03:59 | 34.82161 | -20.77009 | 36955 ft | 525 kts | 125° |
| 2026-05-09 03:59 | 34.78333 | -20.69501 | 36938 ft | 525 kts | 125° |
| 2026-05-09 04:00 | 34.74480 | -20.61957 | 36937 ft | 525 kts | 126° |
| 2026-05-09 04:00 | 34.70617 | -20.54413 | 36900 ft | 524 kts | 126° |
| 2026-05-09 04:01 | 34.66759 | -20.46892 | 36955 ft | 524 kts | 126° |
| 2026-05-09 04:01 | 34.62894 | -20.39373 | 36938 ft | 525 kts | 126° |
| 2026-05-09 04:02 | 34.59039 | -20.31891 | 36942 ft | 525 kts | 126° |
| 2026-05-09 04:02 | 34.55156 | -20.24371 | 36931 ft | 525 kts | 126° |
| 2026-05-09 04:03 | 34.51269 | -20.16858 | 36912 ft | 524 kts | 126° |
| 2026-05-09 04:03 | 34.47387 | -20.09371 | 36938 ft | 525 kts | 126° |
| 2026-05-09 04:04 | 34.43520 | -20.01928 | 36925 ft | 525 kts | 126° |
| 2026-05-09 04:04 | 34.39617 | -19.94433 | 36921 ft | 525 kts | 126° |
| 2026-05-09 04:05 | 34.35715 | -19.86953 | 36928 ft | 526 kts | 126° |
| 2026-05-09 04:05 | 34.31796 | -19.79458 | 36943 ft | 526 kts | 127° |
| 2026-05-09 04:06 | 34.27878 | -19.71981 | 36930 ft | 526 kts | 127° |
| 2026-05-09 04:06 | 34.23980 | -19.64558 | 36915 ft | 526 kts | 127° |
| 2026-05-09 04:07 | 34.20048 | -19.57083 | 36916 ft | 526 kts | 127° |
| 2026-05-09 04:07 | 34.16117 | -19.49626 | 36882 ft | 525 kts | 127° |
| 2026-05-09 04:08 | 34.12210 | -19.42231 | 36931 ft | 525 kts | 127° |
| 2026-05-09 04:08 | 34.08270 | -19.34790 | 36921 ft | 525 kts | 127° |
| 2026-05-09 04:09 | 34.04352 | -19.27404 | 36910 ft | 525 kts | 127° |
| 2026-05-09 04:09 | 34.00412 | -19.19992 | 36916 ft | 525 kts | 127° |
| 2026-05-09 04:10 | 33.96462 | -19.12578 | 36883 ft | 524 kts | 127° |
| 2026-05-09 04:10 | 33.92533 | -19.05219 | 36912 ft | 524 kts | 127° |
| 2026-05-09 04:11 | 33.88583 | -18.97834 | 36913 ft | 524 kts | 127° |
| 2026-05-09 04:11 | 33.84622 | -18.90444 | 36915 ft | 524 kts | 127° |
| 2026-05-09 04:12 | 33.80777 | -18.83284 | 36913 ft | 524 kts | 127° |
| 2026-05-09 04:12 | 33.76841 | -18.75970 | 36882 ft | 524 kts | 128° |
| 2026-05-09 04:13 | 33.72877 | -18.68617 | 36905 ft | 523 kts | 128° |
| 2026-05-09 04:13 | 33.68908 | -18.61273 | 36920 ft | 523 kts | 128° |
| 2026-05-09 04:14 | 33.64933 | -18.53931 | 36915 ft | 524 kts | 128° |
| 2026-05-09 04:14 | 33.60978 | -18.46640 | 36924 ft | 524 kts | 128° |
| 2026-05-09 04:15 | 33.56988 | -18.39301 | 36900 ft | 524 kts | 128° |
| 2026-05-09 04:15 | 33.52993 | -18.31965 | 36920 ft | 524 kts | 128° |
| 2026-05-09 04:16 | 33.48999 | -18.24647 | 36920 ft | 525 kts | 128° |
| 2026-05-09 04:16 | 33.45018 | -18.17366 | 36924 ft | 525 kts | 128° |
| 2026-05-09 04:17 | 33.41006 | -18.10044 | 36921 ft | 525 kts | 128° |
| 2026-05-09 04:17 | 33.36985 | -18.02721 | 36907 ft | 525 kts | 128° |
| 2026-05-09 04:18 | 33.32992 | -17.95462 | 36911 ft | 525 kts | 128° |
| 2026-05-09 04:18 | 33.28965 | -17.88156 | 36922 ft | 525 kts | 128° |
| 2026-05-09 04:19 | 33.24933 | -17.80854 | 36918 ft | 525 kts | 128° |
| 2026-05-09 04:19 | 33.20924 | -17.73610 | 36952 ft | 525 kts | 128° |
| 2026-05-09 04:20 | 33.16882 | -17.66320 | 36918 ft | 525 kts | 128° |
| 2026-05-09 04:20 | 33.12839 | -17.59041 | 36921 ft | 525 kts | 128° |
| 2026-05-09 04:21 | 33.08822 | -17.51821 | 36923 ft | 525 kts | 128° |
| 2026-05-09 04:21 | 33.04514 | -17.44839 | 36921 ft | 515 kts | 141° |
| 2026-05-09 04:22 | 33.01867 | -17.42014 | 36945 ft | 505 kts | 150° |
| 2026-05-09 04:22 | 32.95931 | -17.37882 | 36929 ft | 487 kts | 165° |
| 2026-05-09 04:23 | 32.89721 | -17.34629 | 36941 ft | 488 kts | 166° |
| 2026-05-09 04:23 | 32.83527 | -17.31367 | 36938 ft | 490 kts | 165° |
| 2026-05-09 04:24 | 32.77283 | -17.28026 | 36937 ft | 492 kts | 165° |
| 2026-05-09 04:24 | 32.71062 | -17.24677 | 36919 ft | 493 kts | 165° |
| 2026-05-09 04:25 | 32.64802 | -17.21310 | 36937 ft | 494 kts | 165° |
| 2026-05-09 04:25 | 32.58530 | -17.17944 | 36943 ft | 495 kts | 165° |
| 2026-05-09 04:26 | 32.52251 | -17.14583 | 36940 ft | 495 kts | 165° |
| 2026-05-09 04:26 | 32.46010 | -17.11246 | 36903 ft | 494 kts | 166° |
| 2026-05-09 04:27 | 32.39738 | -17.07897 | 36935 ft | 494 kts | 166° |
| 2026-05-09 04:27 | 32.33463 | -17.04554 | 36949 ft | 494 kts | 166° |
| 2026-05-09 04:28 | 32.27225 | -17.01236 | 36939 ft | 494 kts | 166° |
| 2026-05-09 04:28 | 32.20952 | -16.97903 | 36943 ft | 493 kts | 166° |
| 2026-05-09 04:29 | 32.14690 | -16.94580 | 36948 ft | 493 kts | 166° |
| 2026-05-09 04:29 | 32.08460 | -16.91280 | 36955 ft | 493 kts | 166° |
| 2026-05-09 04:30 | 32.02203 | -16.87971 | 36950 ft | 492 kts | 166° |
| 2026-05-09 04:30 | 31.95954 | -16.84670 | 36954 ft | 491 kts | 166° |
| 2026-05-09 04:31 | 31.89714 | -16.81380 | 36960 ft | 491 kts | 166° |
| 2026-05-09 04:31 | 31.83470 | -16.78093 | 36959 ft | 491 kts | 166° |
| 2026-05-09 04:32 | 31.77263 | -16.74830 | 36962 ft | 492 kts | 166° |
| 2026-05-09 04:32 | 31.71013 | -16.71548 | 36963 ft | 491 kts | 167° |
| 2026-05-09 04:33 | 31.64765 | -16.68274 | 36975 ft | 492 kts | 167° |
| 2026-05-09 04:33 | 31.58490 | -16.64990 | 36970 ft | 493 kts | 167° |
| 2026-05-09 04:34 | 31.52243 | -16.61724 | 36967 ft | 494 kts | 167° |
| 2026-05-09 04:34 | 31.45962 | -16.58443 | 36965 ft | 494 kts | 167° |
| 2026-05-09 04:35 | 31.39627 | -16.55467 | 36947 ft | 473 kts | 182° |
| 2026-05-09 04:35 | 31.36441 | -16.55070 | 37014 ft | 457 kts | 188° |
| 2026-05-09 04:35 | 31.33259 | -16.54805 | 36971 ft | 458 kts | 188° |
| 2026-05-09 04:36 | 31.26921 | -16.54250 | 36973 ft | 460 kts | 188° |
| 2026-05-09 04:36 | 31.21591 | -16.53734 | 36962 ft | 460 kts | 188° |
| 2026-05-09 04:37 | 31.15187 | -16.53080 | 36973 ft | 462 kts | 188° |
| 2026-05-09 04:37 | 31.08781 | -16.52419 | 36988 ft | 462 kts | 188° |
| 2026-05-09 04:38 | 31.02367 | -16.51759 | 36986 ft | 463 kts | 188° |
| 2026-05-09 04:38 | 30.95948 | -16.51099 | 36983 ft | 462 kts | 188° |
| 2026-05-09 04:39 | 30.89557 | -16.50444 | 36980 ft | 462 kts | 188° |
| 2026-05-09 04:39 | 30.83178 | -16.49793 | 36996 ft | 462 kts | 188° |
| 2026-05-09 04:40 | 30.76762 | -16.49138 | 36998 ft | 462 kts | 188° |
| 2026-05-09 04:40 | 30.70380 | -16.48488 | 36962 ft | 461 kts | 188° |
| 2026-05-09 04:41 | 30.64034 | -16.47841 | 36986 ft | 460 kts | 188° |
| 2026-05-09 04:41 | 30.57655 | -16.47193 | 36998 ft | 459 kts | 188° |
| 2026-05-09 04:42 | 30.51290 | -16.46548 | 37002 ft | 459 kts | 188° |
| 2026-05-09 04:42 | 30.44962 | -16.45907 | 36951 ft | 458 kts | 188° |
| 2026-05-09 04:43 | 30.38620 | -16.45265 | 36740 ft | 461 kts | 188° |
| 2026-05-09 04:43 | 30.35403 | -16.44945 | 36250 ft | 461 kts | 188° |
| 2026-05-09 04:43 | 30.32198 | -16.44619 | 35642 ft | 460 kts | 188° |
| 2026-05-09 04:43 | 30.29004 | -16.44295 | 35023 ft | 460 kts | 187° |
| 2026-05-09 04:44 | 30.25808 | -16.43972 | 34379 ft | 461 kts | 187° |
| 2026-05-09 04:44 | 30.22601 | -16.43650 | 33639 ft | 463 kts | 187° |
| 2026-05-09 04:44 | 30.19424 | -16.43331 | 32875 ft | 464 kts | 187° |
| 2026-05-09 04:44 | 30.16204 | -16.43007 | 32162 ft | 464 kts | 187° |
| 2026-05-09 04:45 | 30.12985 | -16.42680 | 31629 ft | 460 kts | 186° |
| 2026-05-09 04:45 | 30.09807 | -16.42354 | 31138 ft | 456 kts | 186° |
| 2026-05-09 04:45 | 30.06661 | -16.42033 | 30653 ft | 452 kts | 186° |
| 2026-05-09 04:45 | 30.03540 | -16.41717 | 30175 ft | 448 kts | 186° |
| 2026-05-09 04:46 | 30.00447 | -16.41406 | 29619 ft | 444 kts | 186° |
| 2026-05-09 04:46 | 29.97428 | -16.41103 | 29085 ft | 439 kts | 186° |
| 2026-05-09 04:46 | 29.94402 | -16.40800 | 28593 ft | 434 kts | 186° |
| 2026-05-09 04:46 | 29.91401 | -16.40499 | 28045 ft | 430 kts | 186° |
| 2026-05-09 04:47 | 29.88436 | -16.40202 | 27610 ft | 424 kts | 186° |
| 2026-05-09 04:47 | 29.85510 | -16.39910 | 27118 ft | 420 kts | 185° |
| 2026-05-09 04:47 | 29.82609 | -16.39621 | 26642 ft | 416 kts | 185° |
| 2026-05-09 04:47 | 29.79732 | -16.39335 | 26169 ft | 413 kts | 185° |
| 2026-05-09 04:48 | 29.76881 | -16.39052 | 25701 ft | 409 kts | 185° |
| 2026-05-09 04:48 | 29.74049 | -16.38770 | 25237 ft | 407 kts | 185° |
| 2026-05-09 04:48 | 29.71273 | -16.38494 | 24779 ft | 404 kts | 184° |
| 2026-05-09 04:48 | 29.68475 | -16.38216 | 24303 ft | 402 kts | 184° |
| 2026-05-09 04:49 | 29.65691 | -16.37940 | 23836 ft | 400 kts | 184° |
| 2026-05-09 04:49 | 29.62926 | -16.37665 | 23311 ft | 398 kts | 184° |
| 2026-05-09 04:49 | 29.60166 | -16.37390 | 22801 ft | 395 kts | 184° |
| 2026-05-09 04:49 | 29.57433 | -16.37116 | 22416 ft | 390 kts | 184° |
| 2026-05-09 04:50 | 29.54779 | -16.36848 | 22003 ft | 385 kts | 184° |
| 2026-05-09 04:50 | 29.52115 | -16.36581 | 21552 ft | 382 kts | 184° |
| 2026-05-09 04:50 | 29.49475 | -16.36318 | 21104 ft | 380 kts | 184° |
| 2026-05-09 04:50 | 29.46845 | -16.36058 | 20614 ft | 379 kts | 183° |
| 2026-05-09 04:51 | 29.44232 | -16.35799 | 20192 ft | 376 kts | 183° |
| 2026-05-09 04:51 | 29.41629 | -16.35541 | 19759 ft | 373 kts | 183° |
| 2026-05-09 04:51 | 29.39043 | -16.35284 | 19322 ft | 372 kts | 183° |
| 2026-05-09 04:51 | 29.36469 | -16.35029 | 18861 ft | 370 kts | 183° |
| 2026-05-09 04:52 | 29.33903 | -16.34775 | 18427 ft | 369 kts | 182° |
| 2026-05-09 04:52 | 29.31345 | -16.34522 | 17928 ft | 368 kts | 182° |
| 2026-05-09 04:52 | 29.28826 | -16.34273 | 17468 ft | 366 kts | 182° |
| 2026-05-09 04:52 | 29.26291 | -16.34021 | 17016 ft | 364 kts | 182° |
| 2026-05-09 04:53 | 29.23767 | -16.33771 | 16578 ft | 362 kts | 182° |
| 2026-05-09 04:53 | 29.21264 | -16.33522 | 16141 ft | 360 kts | 182° |
| 2026-05-09 04:53 | 29.18772 | -16.33276 | 15703 ft | 358 kts | 182° |
| 2026-05-09 04:53 | 29.16292 | -16.33031 | 15268 ft | 357 kts | 182° |
| 2026-05-09 04:54 | 29.13819 | -16.32786 | 14831 ft | 356 kts | 182° |
| 2026-05-09 04:54 | 29.11357 | -16.32544 | 14394 ft | 355 kts | 182° |
| 2026-05-09 04:54 | 29.08892 | -16.32301 | 13931 ft | 354 kts | 181° |
| 2026-05-09 04:54 | 29.06439 | -16.32059 | 13480 ft | 353 kts | 181° |
| 2026-05-09 04:55 | 29.03998 | -16.31818 | 13033 ft | 351 kts | 181° |
| 2026-05-09 04:55 | 29.01574 | -16.31578 | 12596 ft | 349 kts | 181° |
| 2026-05-09 04:55 | 28.99164 | -16.31340 | 12163 ft | 347 kts | 181° |